sensor_id;sensor_type;location;lat;lon;timestamp;temperature;humidity
18131;DHT22;9191;54.324;10.126;2022-11-09T00:01:14;13.50;99.90
18131;DHT22;9191;54.324;10.126;2022-11-09T00:03:42;13.40;99.90
18131;DHT22;9191;54.324;10.126;2022-11-09T00:06:12;13.40;99.90
18131;DHT22;9191;54.324;10.126;2022-11-09T00:08:40;13.40;99.90
18131;DHT22;9191;54.324;10.126;2022-11-09T00:11:08;13.50;99.90
18131;DHT22;9191;54.324;10.126;2022-11-09T00:13:36;13.40;99.90
18131;DHT22;9191;54.324;10.126;2022-11-09T00:16:04;13.40;99.90
18131;DHT22;9191;54.324;10.126;2022-11-09T00:18:32;13.30;99.90
18131;DHT22;9191;54.324;10.126;2022-11-09T00:21:05;13.40;99.90
18131;DHT22;9191;54.324;10.126;2022-11-09T00:23:36;13.30;99.90
18131;DHT22;9191;54.324;10.126;2022-11-09T00:26:04;13.30;99.90
18131;DHT22;9191;54.324;10.126;2022-11-09T00:28:31;13.40;99.90
18131;DHT22;9191;54.324;10.126;2022-11-09T00:30:58;13.50;99.90
18131;DHT22;9191;54.324;10.126;2022-11-09T00:33:27;13.40;99.90
18131;DHT22;9191;54.324;10.126;2022-11-09T00:35:54;13.50;99.90
18131;DHT22;9191;54.324;10.126;2022-11-09T00:38:23;13.50;99.90
18131;DHT22;9191;54.324;10.126;2022-11-09T00:40:50;13.50;99.90
18131;DHT22;9191;54.324;10.126;2022-11-09T00:43:16;13.50;99.90
18131;DHT22;9191;54.324;10.126;2022-11-09T00:45:45;13.50;99.90
18131;DHT22;9191;54.324;10.126;2022-11-09T00:48:12;13.50;99.90
18131;DHT22;9191;54.324;10.126;2022-11-09T00:50:39;13.50;99.90
18131;DHT22;9191;54.324;10.126;2022-11-09T00:53:06;13.60;99.90
18131;DHT22;9191;54.324;10.126;2022-11-09T00:55:34;13.50;99.90
18131;DHT22;9191;54.324;10.126;2022-11-09T00:58:00;13.50;99.90
18131;DHT22;9191;54.324;10.126;2022-11-09T01:00:27;13.60;99.90
18131;DHT22;9191;54.324;10.126;2022-11-09T01:02:54;13.70;99.90
18131;DHT22;9191;54.324;10.126;2022-11-09T01:05:23;13.70;99.90
18131;DHT22;9191;54.324;10.126;2022-11-09T01:07:50;13.70;99.90
18131;DHT22;9191;54.324;10.126;2022-11-09T01:10:17;13.70;99.90
18131;DHT22;9191;54.324;10.126;2022-11-09T01:12:45;13.70;99.90
18131;DHT22;9191;54.324;10.126;2022-11-09T01:15:11;13.70;99.90
18131;DHT22;9191;54.324;10.126;2022-11-09T01:17:38;13.70;99.90
18131;DHT22;9191;54.324;10.126;2022-11-09T01:20:06;13.60;99.90
18131;DHT22;9191;54.324;10.126;2022-11-09T01:22:33;13.60;99.90
18131;DHT22;9191;54.324;10.126;2022-11-09T01:25:00;13.60;99.90
18131;DHT22;9191;54.324;10.126;2022-11-09T01:27:34;13.60;99.90
18131;DHT22;9191;54.324;10.126;2022-11-09T01:30:03;13.60;99.90
18131;DHT22;9191;54.324;10.126;2022-11-09T01:32:30;13.50;99.90
18131;DHT22;9191;54.324;10.126;2022-11-09T01:34:57;13.60;99.90
18131;DHT22;9191;54.324;10.126;2022-11-09T01:37:24;13.50;99.90
18131;DHT22;9191;54.324;10.126;2022-11-09T01:39:51;13.40;99.90
18131;DHT22;9191;54.324;10.126;2022-11-09T01:42:22;13.30;99.90
18131;DHT22;9191;54.324;10.126;2022-11-09T01:47:45;13.30;99.90
18131;DHT22;9191;54.324;10.126;2022-11-09T01:50:13;13.20;99.90
18131;DHT22;9191;54.324;10.126;2022-11-09T01:52:43;13.20;99.90
18131;DHT22;9191;54.324;10.126;2022-11-09T01:55:15;13.20;99.90
18131;DHT22;9191;54.324;10.126;2022-11-09T01:57:46;13.10;99.90
18131;DHT22;9191;54.324;10.126;2022-11-09T02:00:16;13.10;99.90
18131;DHT22;9191;54.324;10.126;2022-11-09T02:02:48;13.10;99.90
18131;DHT22;9191;54.324;10.126;2022-11-09T02:05:20;13.10;99.90
18131;DHT22;9191;54.324;10.126;2022-11-09T02:07:48;13.00;99.90
18131;DHT22;9191;54.324;10.126;2022-11-09T02:10:21;13.00;99.90
18131;DHT22;9191;54.324;10.126;2022-11-09T02:12:50;13.00;99.90
18131;DHT22;9191;54.324;10.126;2022-11-09T02:15:17;13.10;99.90
18131;DHT22;9191;54.324;10.126;2022-11-09T02:17:50;13.00;99.90
18131;DHT22;9191;54.324;10.126;2022-11-09T02:20:19;13.00;99.90
18131;DHT22;9191;54.324;10.126;2022-11-09T02:22:47;13.00;99.90
18131;DHT22;9191;54.324;10.126;2022-11-09T02:25:14;12.90;99.90
18131;DHT22;9191;54.324;10.126;2022-11-09T02:27:42;12.90;99.90
18131;DHT22;9191;54.324;10.126;2022-11-09T02:30:11;12.90;99.90
18131;DHT22;9191;54.324;10.126;2022-11-09T02:32:38;12.90;99.90
18131;DHT22;9191;54.324;10.126;2022-11-09T02:35:06;12.80;99.90
18131;DHT22;9191;54.324;10.126;2022-11-09T02:37:37;12.80;99.90
18131;DHT22;9191;54.324;10.126;2022-11-09T02:40:08;12.90;99.90
18131;DHT22;9191;54.324;10.126;2022-11-09T02:42:36;12.90;99.90
18131;DHT22;9191;54.324;10.126;2022-11-09T02:45:04;12.90;99.90
18131;DHT22;9191;54.324;10.126;2022-11-09T02:47:31;12.90;99.90
18131;DHT22;9191;54.324;10.126;2022-11-09T02:49:58;12.90;99.90
18131;DHT22;9191;54.324;10.126;2022-11-09T02:52:25;12.90;99.90
18131;DHT22;9191;54.324;10.126;2022-11-09T02:54:55;12.90;99.90
18131;DHT22;9191;54.324;10.126;2022-11-09T02:57:22;12.90;99.90
18131;DHT22;9191;54.324;10.126;2022-11-09T02:59:49;12.90;99.90
18131;DHT22;9191;54.324;10.126;2022-11-09T03:02:15;12.90;99.90
18131;DHT22;9191;54.324;10.126;2022-11-09T03:04:42;12.90;99.90
18131;DHT22;9191;54.324;10.126;2022-11-09T03:07:09;12.90;99.90
18131;DHT22;9191;54.324;10.126;2022-11-09T03:09:38;12.80;99.90
18131;DHT22;9191;54.324;10.126;2022-11-09T03:12:06;12.80;99.90
18131;DHT22;9191;54.324;10.126;2022-11-09T03:14:47;12.90;99.90
18131;DHT22;9191;54.324;10.126;2022-11-09T03:17:14;13.00;99.90
18131;DHT22;9191;54.324;10.126;2022-11-09T03:19:42;12.90;99.90
18131;DHT22;9191;54.324;10.126;2022-11-09T03:22:09;12.80;99.90
18131;DHT22;9191;54.324;10.126;2022-11-09T03:24:36;12.80;99.90
18131;DHT22;9191;54.324;10.126;2022-11-09T03:27:03;12.80;99.90
18131;DHT22;9191;54.324;10.126;2022-11-09T03:29:31;12.80;99.90
18131;DHT22;9191;54.324;10.126;2022-11-09T03:31:58;12.80;99.90
18131;DHT22;9191;54.324;10.126;2022-11-09T03:34:25;12.80;99.90
18131;DHT22;9191;54.324;10.126;2022-11-09T03:36:51;12.80;99.90
18131;DHT22;9191;54.324;10.126;2022-11-09T03:39:21;12.80;99.90
18131;DHT22;9191;54.324;10.126;2022-11-09T03:41:48;12.80;99.90
18131;DHT22;9191;54.324;10.126;2022-11-09T03:44:15;12.90;99.90
18131;DHT22;9191;54.324;10.126;2022-11-09T03:46:43;12.90;99.90
18131;DHT22;9191;54.324;10.126;2022-11-09T03:49:10;12.90;99.90
18131;DHT22;9191;54.324;10.126;2022-11-09T03:51:37;12.90;99.90
18131;DHT22;9191;54.324;10.126;2022-11-09T03:54:03;12.90;99.90
18131;DHT22;9191;54.324;10.126;2022-11-09T03:56:33;12.90;99.90
18131;DHT22;9191;54.324;10.126;2022-11-09T03:59:00;12.90;99.90
18131;DHT22;9191;54.324;10.126;2022-11-09T04:01:27;12.90;99.90
18131;DHT22;9191;54.324;10.126;2022-11-09T04:03:55;12.90;99.90
18131;DHT22;9191;54.324;10.126;2022-11-09T04:06:22;13.00;99.90
18131;DHT22;9191;54.324;10.126;2022-11-09T04:08:48;13.00;99.90
18131;DHT22;9191;54.324;10.126;2022-11-09T04:11:15;13.00;99.90
18131;DHT22;9191;54.324;10.126;2022-11-09T04:13:42;13.00;99.90
18131;DHT22;9191;54.324;10.126;2022-11-09T04:16:09;13.00;99.90
18131;DHT22;9191;54.324;10.126;2022-11-09T04:18:39;13.00;99.90
18131;DHT22;9191;54.324;10.126;2022-11-09T04:21:07;13.00;99.90
18131;DHT22;9191;54.324;10.126;2022-11-09T04:23:34;13.00;99.90
18131;DHT22;9191;54.324;10.126;2022-11-09T04:26:04;13.10;99.90
18131;DHT22;9191;54.324;10.126;2022-11-09T04:28:30;13.00;99.90
18131;DHT22;9191;54.324;10.126;2022-11-09T04:30:59;13.10;99.90
18131;DHT22;9191;54.324;10.126;2022-11-09T04:33:27;13.00;99.90
18131;DHT22;9191;54.324;10.126;2022-11-09T04:35:53;13.00;99.90
18131;DHT22;9191;54.324;10.126;2022-11-09T04:38:22;13.00;99.90
18131;DHT22;9191;54.324;10.126;2022-11-09T04:40:48;13.00;99.90
18131;DHT22;9191;54.324;10.126;2022-11-09T04:43:15;13.00;99.90
18131;DHT22;9191;54.324;10.126;2022-11-09T04:45:42;13.00;99.90
18131;DHT22;9191;54.324;10.126;2022-11-09T04:48:09;13.00;99.90
18131;DHT22;9191;54.324;10.126;2022-11-09T04:50:36;13.00;99.90
18131;DHT22;9191;54.324;10.126;2022-11-09T04:53:05;13.00;99.90
18131;DHT22;9191;54.324;10.126;2022-11-09T04:55:33;13.00;99.90
18131;DHT22;9191;54.324;10.126;2022-11-09T04:58:00;13.00;99.90
18131;DHT22;9191;54.324;10.126;2022-11-09T05:00:27;13.00;99.90
18131;DHT22;9191;54.324;10.126;2022-11-09T05:02:53;12.90;99.90
18131;DHT22;9191;54.324;10.126;2022-11-09T05:05:20;12.80;99.90
18131;DHT22;9191;54.324;10.126;2022-11-09T05:07:47;12.80;99.90
18131;DHT22;9191;54.324;10.126;2022-11-09T05:10:14;12.80;99.90
18131;DHT22;9191;54.324;10.126;2022-11-09T05:12:42;12.80;99.90
18131;DHT22;9191;54.324;10.126;2022-11-09T05:15:12;12.90;99.90
18131;DHT22;9191;54.324;10.126;2022-11-09T05:17:38;12.80;99.90
18131;DHT22;9191;54.324;10.126;2022-11-09T05:20:06;12.90;99.90
18131;DHT22;9191;54.324;10.126;2022-11-09T05:22:38;12.90;99.90
18131;DHT22;9191;54.324;10.126;2022-11-09T05:25:22;12.90;99.90
18131;DHT22;9191;54.324;10.126;2022-11-09T05:27:51;12.90;99.90
18131;DHT22;9191;54.324;10.126;2022-11-09T05:30:18;12.80;99.90
18131;DHT22;9191;54.324;10.126;2022-11-09T05:32:44;12.90;99.90
18131;DHT22;9191;54.324;10.126;2022-11-09T05:35:11;12.80;99.90
18131;DHT22;9191;54.324;10.126;2022-11-09T05:37:38;12.80;99.90
18131;DHT22;9191;54.324;10.126;2022-11-09T05:40:12;12.90;99.90
18131;DHT22;9191;54.324;10.126;2022-11-09T05:42:39;12.90;99.90
18131;DHT22;9191;54.324;10.126;2022-11-09T05:45:09;12.80;99.90
18131;DHT22;9191;54.324;10.126;2022-11-09T05:47:37;12.80;99.90
18131;DHT22;9191;54.324;10.126;2022-11-09T05:50:06;12.80;99.90
18131;DHT22;9191;54.324;10.126;2022-11-09T05:52:33;12.80;99.90
18131;DHT22;9191;54.324;10.126;2022-11-09T05:55:00;12.80;99.90
18131;DHT22;9191;54.324;10.126;2022-11-09T05:57:29;13.00;99.90
18131;DHT22;9191;54.324;10.126;2022-11-09T05:59:56;13.00;99.90
18131;DHT22;9191;54.324;10.126;2022-11-09T06:02:24;12.90;99.90
18131;DHT22;9191;54.324;10.126;2022-11-09T06:04:55;12.90;99.90
18131;DHT22;9191;54.324;10.126;2022-11-09T06:07:22;12.90;99.90
18131;DHT22;9191;54.324;10.126;2022-11-09T06:09:48;12.80;99.90
18131;DHT22;9191;54.324;10.126;2022-11-09T06:12:15;12.80;99.90
18131;DHT22;9191;54.324;10.126;2022-11-09T06:14:42;12.80;99.90
18131;DHT22;9191;54.324;10.126;2022-11-09T06:17:10;12.80;99.90
18131;DHT22;9191;54.324;10.126;2022-11-09T06:19:39;12.90;99.90
18131;DHT22;9191;54.324;10.126;2022-11-09T06:22:05;12.90;99.90
18131;DHT22;9191;54.324;10.126;2022-11-09T06:24:32;13.00;99.90
18131;DHT22;9191;54.324;10.126;2022-11-09T06:26:59;13.00;99.90
18131;DHT22;9191;54.324;10.126;2022-11-09T06:29:26;13.00;99.90
18131;DHT22;9191;54.324;10.126;2022-11-09T06:31:53;13.00;99.90
18131;DHT22;9191;54.324;10.126;2022-11-09T06:34:20;13.00;99.90
18131;DHT22;9191;54.324;10.126;2022-11-09T06:36:48;13.00;99.90
18131;DHT22;9191;54.324;10.126;2022-11-09T06:39:15;13.00;99.90
18131;DHT22;9191;54.324;10.126;2022-11-09T06:41:42;13.00;99.90
18131;DHT22;9191;54.324;10.126;2022-11-09T06:44:08;13.00;99.90
18131;DHT22;9191;54.324;10.126;2022-11-09T06:46:35;13.00;99.90
18131;DHT22;9191;54.324;10.126;2022-11-09T06:49:02;13.10;99.90
18131;DHT22;9191;54.324;10.126;2022-11-09T06:51:29;13.20;99.90
18131;DHT22;9191;54.324;10.126;2022-11-09T06:53:57;13.20;99.90
18131;DHT22;9191;54.324;10.126;2022-11-09T06:56:24;13.20;99.90
18131;DHT22;9191;54.324;10.126;2022-11-09T06:58:51;13.20;99.90
18131;DHT22;9191;54.324;10.126;2022-11-09T07:01:18;13.20;99.90
18131;DHT22;9191;54.324;10.126;2022-11-09T07:03:47;13.30;99.90
18131;DHT22;9191;54.324;10.126;2022-11-09T07:06:14;13.30;99.90
18131;DHT22;9191;54.324;10.126;2022-11-09T07:08:43;13.40;99.90
18131;DHT22;9191;54.324;10.126;2022-11-09T07:11:13;13.30;99.90
18131;DHT22;9191;54.324;10.126;2022-11-09T07:13:41;13.30;99.90
18131;DHT22;9191;54.324;10.126;2022-11-09T07:16:08;13.40;99.90
18131;DHT22;9191;54.324;10.126;2022-11-09T07:18:36;13.40;99.90
18131;DHT22;9191;54.324;10.126;2022-11-09T07:21:04;13.50;99.90
18131;DHT22;9191;54.324;10.126;2022-11-09T07:23:31;13.40;99.90
18131;DHT22;9191;54.324;10.126;2022-11-09T07:25:57;13.40;99.90
18131;DHT22;9191;54.324;10.126;2022-11-09T07:28:25;13.40;99.90
18131;DHT22;9191;54.324;10.126;2022-11-09T07:30:52;13.30;99.90
18131;DHT22;9191;54.324;10.126;2022-11-09T07:33:20;13.30;99.90
18131;DHT22;9191;54.324;10.126;2022-11-09T07:35:47;13.30;99.90
18131;DHT22;9191;54.324;10.126;2022-11-09T07:38:14;13.50;99.90
18131;DHT22;9191;54.324;10.126;2022-11-09T07:40:41;13.40;99.90
18131;DHT22;9191;54.324;10.126;2022-11-09T07:43:09;13.40;99.90
18131;DHT22;9191;54.324;10.126;2022-11-09T07:45:38;13.50;99.90
18131;DHT22;9191;54.324;10.126;2022-11-09T07:48:08;13.50;99.90
18131;DHT22;9191;54.324;10.126;2022-11-09T07:50:35;13.60;99.90
18131;DHT22;9191;54.324;10.126;2022-11-09T07:53:03;13.60;99.90
18131;DHT22;9191;54.324;10.126;2022-11-09T07:55:35;13.60;99.90
18131;DHT22;9191;54.324;10.126;2022-11-09T07:58:04;13.70;99.90
18131;DHT22;9191;54.324;10.126;2022-11-09T08:01:06;13.80;99.90
18131;DHT22;9191;54.324;10.126;2022-11-09T08:03:33;13.90;99.90
18131;DHT22;9191;54.324;10.126;2022-11-09T08:06:00;14.00;99.90
18131;DHT22;9191;54.324;10.126;2022-11-09T08:08:27;13.90;99.90
18131;DHT22;9191;54.324;10.126;2022-11-09T08:10:55;13.90;99.90
18131;DHT22;9191;54.324;10.126;2022-11-09T08:13:23;13.70;99.90
18131;DHT22;9191;54.324;10.126;2022-11-09T08:15:50;13.80;99.90
18131;DHT22;9191;54.324;10.126;2022-11-09T08:18:20;14.10;99.90
18131;DHT22;9191;54.324;10.126;2022-11-09T08:20:48;14.60;99.90
18131;DHT22;9191;54.324;10.126;2022-11-09T08:23:17;15.10;99.90
18131;DHT22;9191;54.324;10.126;2022-11-09T08:25:45;15.60;99.90
18131;DHT22;9191;54.324;10.126;2022-11-09T08:28:13;15.80;99.90
18131;DHT22;9191;54.324;10.126;2022-11-09T08:30:41;16.10;99.90
18131;DHT22;9191;54.324;10.126;2022-11-09T08:33:08;16.00;99.90
18131;DHT22;9191;54.324;10.126;2022-11-09T08:35:37;15.70;99.90
18131;DHT22;9191;54.324;10.126;2022-11-09T08:38:04;15.50;99.90
18131;DHT22;9191;54.324;10.126;2022-11-09T08:40:32;16.10;99.90
18131;DHT22;9191;54.324;10.126;2022-11-09T08:43:00;16.50;99.90
18131;DHT22;9191;54.324;10.126;2022-11-09T08:45:28;16.30;99.90
18131;DHT22;9191;54.324;10.126;2022-11-09T08:47:57;16.40;99.90
18131;DHT22;9191;54.324;10.126;2022-11-09T08:50:24;16.70;99.90
18131;DHT22;9191;54.324;10.126;2022-11-09T08:52:53;17.10;99.90
18131;DHT22;9191;54.324;10.126;2022-11-09T08:55:20;17.20;99.90
18131;DHT22;9191;54.324;10.126;2022-11-09T08:57:47;17.00;99.90
18131;DHT22;9191;54.324;10.126;2022-11-09T09:00:15;16.60;99.90
18131;DHT22;9191;54.324;10.126;2022-11-09T09:02:41;16.20;99.90
18131;DHT22;9191;54.324;10.126;2022-11-09T09:05:10;15.90;99.90
18131;DHT22;9191;54.324;10.126;2022-11-09T09:07:37;15.70;99.90
18131;DHT22;9191;54.324;10.126;2022-11-09T09:10:06;15.60;99.90
18131;DHT22;9191;54.324;10.126;2022-11-09T09:12:33;15.50;99.90
18131;DHT22;9191;54.324;10.126;2022-11-09T09:14:59;15.60;99.90
18131;DHT22;9191;54.324;10.126;2022-11-09T09:17:26;15.50;99.90
18131;DHT22;9191;54.324;10.126;2022-11-09T09:19:53;15.30;99.90
18131;DHT22;9191;54.324;10.126;2022-11-09T09:22:20;15.30;99.90
18131;DHT22;9191;54.324;10.126;2022-11-09T09:24:49;15.30;99.90
18131;DHT22;9191;54.324;10.126;2022-11-09T09:27:17;15.30;99.90
18131;DHT22;9191;54.324;10.126;2022-11-09T09:29:44;15.30;99.90
18131;DHT22;9191;54.324;10.126;2022-11-09T09:32:11;15.30;99.90
18131;DHT22;9191;54.324;10.126;2022-11-09T09:34:37;15.30;99.90
18131;DHT22;9191;54.324;10.126;2022-11-09T09:37:04;15.20;99.90
18131;DHT22;9191;54.324;10.126;2022-11-09T09:39:31;15.20;99.90
18131;DHT22;9191;54.324;10.126;2022-11-09T09:42:00;15.20;99.90
18131;DHT22;9191;54.324;10.126;2022-11-09T09:44:32;15.30;99.90
18131;DHT22;9191;54.324;10.126;2022-11-09T09:47:09;15.40;99.90
18131;DHT22;9191;54.324;10.126;2022-11-09T09:49:39;15.40;99.90
18131;DHT22;9191;54.324;10.126;2022-11-09T09:52:15;15.40;99.90
18131;DHT22;9191;54.324;10.126;2022-11-09T09:54:53;15.40;99.90
18131;DHT22;9191;54.324;10.126;2022-11-09T09:57:25;15.30;99.90
18131;DHT22;9191;54.324;10.126;2022-11-09T09:59:58;15.20;99.90
18131;DHT22;9191;54.324;10.126;2022-11-09T10:02:30;15.10;99.90
18131;DHT22;9191;54.324;10.126;2022-11-09T10:04:59;15.20;99.90
18131;DHT22;9191;54.324;10.126;2022-11-09T10:07:29;15.20;99.90
18131;DHT22;9191;54.324;10.126;2022-11-09T10:10:09;15.10;99.90
18131;DHT22;9191;54.324;10.126;2022-11-09T10:12:52;15.10;99.90
18131;DHT22;9191;54.324;10.126;2022-11-09T10:15:29;15.10;99.90
18131;DHT22;9191;54.324;10.126;2022-11-09T10:18:11;15.10;99.90
18131;DHT22;9191;54.324;10.126;2022-11-09T10:21:19;15.10;99.90
18131;DHT22;9191;54.324;10.126;2022-11-09T10:23:58;15.40;99.90
18131;DHT22;9191;54.324;10.126;2022-11-09T10:26:35;15.40;99.90
18131;DHT22;9191;54.324;10.126;2022-11-09T10:29:15;15.40;99.90
18131;DHT22;9191;54.324;10.126;2022-11-09T10:31:47;15.50;99.90
18131;DHT22;9191;54.324;10.126;2022-11-09T10:34:17;15.50;99.90
18131;DHT22;9191;54.324;10.126;2022-11-09T10:36:49;15.50;99.90
18131;DHT22;9191;54.324;10.126;2022-11-09T10:39:22;15.60;99.90
18131;DHT22;9191;54.324;10.126;2022-11-09T10:41:50;15.50;99.90
18131;DHT22;9191;54.324;10.126;2022-11-09T10:44:20;15.60;99.90
18131;DHT22;9191;54.324;10.126;2022-11-09T10:47:07;15.70;99.90
18131;DHT22;9191;54.324;10.126;2022-11-09T10:49:35;15.80;99.90
18131;DHT22;9191;54.324;10.126;2022-11-09T10:52:04;15.80;99.90
18131;DHT22;9191;54.324;10.126;2022-11-09T10:54:33;15.90;99.90
18131;DHT22;9191;54.324;10.126;2022-11-09T10:57:10;16.10;99.90
18131;DHT22;9191;54.324;10.126;2022-11-09T10:59:47;16.10;99.90
18131;DHT22;9191;54.324;10.126;2022-11-09T11:05:33;16.10;99.90
18131;DHT22;9191;54.324;10.126;2022-11-09T11:08:22;16.10;99.90
18131;DHT22;9191;54.324;10.126;2022-11-09T11:10:51;15.70;99.90
18131;DHT22;9191;54.324;10.126;2022-11-09T11:13:26;15.60;99.90
18131;DHT22;9191;54.324;10.126;2022-11-09T11:15:53;15.40;99.90
18131;DHT22;9191;54.324;10.126;2022-11-09T11:18:22;15.40;99.90
18131;DHT22;9191;54.324;10.126;2022-11-09T11:21:12;15.30;99.90
18131;DHT22;9191;54.324;10.126;2022-11-09T11:23:40;15.40;99.90
18131;DHT22;9191;54.324;10.126;2022-11-09T11:26:23;15.50;99.90
18131;DHT22;9191;54.324;10.126;2022-11-09T11:28:55;15.60;99.90
18131;DHT22;9191;54.324;10.126;2022-11-09T11:31:23;15.60;99.90
18131;DHT22;9191;54.324;10.126;2022-11-09T11:33:50;15.80;99.90
18131;DHT22;9191;54.324;10.126;2022-11-09T11:36:27;15.80;99.90
18131;DHT22;9191;54.324;10.126;2022-11-09T11:39:11;15.90;99.90
18131;DHT22;9191;54.324;10.126;2022-11-09T11:41:51;15.90;99.90
18131;DHT22;9191;54.324;10.126;2022-11-09T11:44:34;15.90;99.90
18131;DHT22;9191;54.324;10.126;2022-11-09T11:47:08;15.90;99.90
18131;DHT22;9191;54.324;10.126;2022-11-09T11:50:01;15.80;99.90
18131;DHT22;9191;54.324;10.126;2022-11-09T11:52:42;15.80;99.90
18131;DHT22;9191;54.324;10.126;2022-11-09T11:55:24;15.70;99.90
18131;DHT22;9191;54.324;10.126;2022-11-09T11:58:04;15.80;99.90
18131;DHT22;9191;54.324;10.126;2022-11-09T12:00:41;15.80;99.90
18131;DHT22;9191;54.324;10.126;2022-11-09T12:03:34;15.80;99.90
18131;DHT22;9191;54.324;10.126;2022-11-09T12:06:13;15.70;99.90
18131;DHT22;9191;54.324;10.126;2022-11-09T12:08:54;15.70;99.90
18131;DHT22;9191;54.324;10.126;2022-11-09T12:11:36;15.70;99.90
18131;DHT22;9191;54.324;10.126;2022-11-09T12:14:13;15.70;99.90
18131;DHT22;9191;54.324;10.126;2022-11-09T12:16:47;15.60;99.90
18131;DHT22;9191;54.324;10.126;2022-11-09T12:19:39;15.60;99.90
18131;DHT22;9191;54.324;10.126;2022-11-09T12:22:13;15.60;99.90
18131;DHT22;9191;54.324;10.126;2022-11-09T12:24:51;15.50;99.90
18131;DHT22;9191;54.324;10.126;2022-11-09T12:30:21;15.40;99.90
18131;DHT22;9191;54.324;10.126;2022-11-09T12:32:52;15.40;99.90
18131;DHT22;9191;54.324;10.126;2022-11-09T12:35:31;15.50;99.90
18131;DHT22;9191;54.324;10.126;2022-11-09T12:38:01;15.50;99.90
18131;DHT22;9191;54.324;10.126;2022-11-09T12:40:36;15.50;99.90
18131;DHT22;9191;54.324;10.126;2022-11-09T12:43:16;15.50;99.90
18131;DHT22;9191;54.324;10.126;2022-11-09T12:45:46;15.60;99.90
18131;DHT22;9191;54.324;10.126;2022-11-09T12:48:23;15.60;99.90
18131;DHT22;9191;54.324;10.126;2022-11-09T12:50:51;15.50;99.90
18131;DHT22;9191;54.324;10.126;2022-11-09T12:53:25;15.50;99.90
18131;DHT22;9191;54.324;10.126;2022-11-09T12:55:58;15.50;99.90
18131;DHT22;9191;54.324;10.126;2022-11-09T12:58:31;15.60;99.90
18131;DHT22;9191;54.324;10.126;2022-11-09T13:00:59;15.70;99.90
18131;DHT22;9191;54.324;10.126;2022-11-09T13:03:29;15.60;99.90
18131;DHT22;9191;54.324;10.126;2022-11-09T13:06:14;15.70;99.90
18131;DHT22;9191;54.324;10.126;2022-11-09T13:08:53;15.70;99.90
18131;DHT22;9191;54.324;10.126;2022-11-09T13:11:34;15.70;99.90
18131;DHT22;9191;54.324;10.126;2022-11-09T13:14:34;15.70;99.90
18131;DHT22;9191;54.324;10.126;2022-11-09T13:20:43;15.70;99.90
18131;DHT22;9191;54.324;10.126;2022-11-09T13:23:40;15.60;99.90
18131;DHT22;9191;54.324;10.126;2022-11-09T13:26:22;15.40;99.90
18131;DHT22;9191;54.324;10.126;2022-11-09T13:29:20;15.40;99.90
18131;DHT22;9191;54.324;10.126;2022-11-09T13:34:58;15.30;99.90
18131;DHT22;9191;54.324;10.126;2022-11-09T13:37:55;15.20;99.90
18131;DHT22;9191;54.324;10.126;2022-11-09T13:40:39;15.30;99.90
18131;DHT22;9191;54.324;10.126;2022-11-09T13:43:16;15.30;99.90
18131;DHT22;9191;54.324;10.126;2022-11-09T13:45:46;15.30;99.90
18131;DHT22;9191;54.324;10.126;2022-11-09T13:51:14;15.40;99.90
18131;DHT22;9191;54.324;10.126;2022-11-09T13:53:56;15.40;99.90
18131;DHT22;9191;54.324;10.126;2022-11-09T13:56:31;15.40;99.90
18131;DHT22;9191;54.324;10.126;2022-11-09T13:59:14;15.30;99.90
18131;DHT22;9191;54.324;10.126;2022-11-09T14:01:46;15.30;99.90
18131;DHT22;9191;54.324;10.126;2022-11-09T14:04:22;15.30;99.90
18131;DHT22;9191;54.324;10.126;2022-11-09T14:06:57;15.20;99.90
18131;DHT22;9191;54.324;10.126;2022-11-09T14:09:27;15.20;99.90
18131;DHT22;9191;54.324;10.126;2022-11-09T14:12:31;15.10;99.90
18131;DHT22;9191;54.324;10.126;2022-11-09T14:15:15;15.00;99.90
18131;DHT22;9191;54.324;10.126;2022-11-09T14:17:55;14.90;99.90
18131;DHT22;9191;54.324;10.126;2022-11-09T14:20:30;14.90;99.90
18131;DHT22;9191;54.324;10.126;2022-11-09T14:22:59;14.90;99.90
18131;DHT22;9191;54.324;10.126;2022-11-09T14:25:34;14.80;99.90
18131;DHT22;9191;54.324;10.126;2022-11-09T14:28:17;14.70;99.90
18131;DHT22;9191;54.324;10.126;2022-11-09T14:34:17;14.70;99.90
18131;DHT22;9191;54.324;10.126;2022-11-09T14:36:44;14.70;99.90
18131;DHT22;9191;54.324;10.126;2022-11-09T14:39:24;14.70;99.90
18131;DHT22;9191;54.324;10.126;2022-11-09T14:41:52;14.60;99.90
18131;DHT22;9191;54.324;10.126;2022-11-09T14:44:24;14.60;99.90
18131;DHT22;9191;54.324;10.126;2022-11-09T14:46:52;14.50;99.90
18131;DHT22;9191;54.324;10.126;2022-11-09T14:49:21;14.50;99.90
18131;DHT22;9191;54.324;10.126;2022-11-09T14:51:49;14.60;99.90
18131;DHT22;9191;54.324;10.126;2022-11-09T14:54:20;14.60;99.90
18131;DHT22;9191;54.324;10.126;2022-11-09T14:56:48;14.60;99.90
18131;DHT22;9191;54.324;10.126;2022-11-09T14:59:16;14.60;99.90
18131;DHT22;9191;54.324;10.126;2022-11-09T15:01:56;14.60;99.90
18131;DHT22;9191;54.324;10.126;2022-11-09T15:04:24;14.60;99.90
18131;DHT22;9191;54.324;10.126;2022-11-09T15:06:54;14.60;99.90
18131;DHT22;9191;54.324;10.126;2022-11-09T15:09:22;14.60;99.90
18131;DHT22;9191;54.324;10.126;2022-11-09T15:11:53;14.60;99.90
18131;DHT22;9191;54.324;10.126;2022-11-09T15:14:25;14.60;99.90
18131;DHT22;9191;54.324;10.126;2022-11-09T15:17:05;14.60;99.90
18131;DHT22;9191;54.324;10.126;2022-11-09T15:19:38;14.50;99.90
18131;DHT22;9191;54.324;10.126;2022-11-09T15:22:33;14.50;99.90
18131;DHT22;9191;54.324;10.126;2022-11-09T15:24:52;14.40;99.90
18131;DHT22;9191;54.324;10.126;2022-11-09T15:27:30;14.40;99.90
18131;DHT22;9191;54.324;10.126;2022-11-09T15:29:57;14.30;99.90
18131;DHT22;9191;54.324;10.126;2022-11-09T15:32:24;14.30;99.90
18131;DHT22;9191;54.324;10.126;2022-11-09T15:34:57;14.30;99.90
18131;DHT22;9191;54.324;10.126;2022-11-09T15:37:27;14.30;99.90
18131;DHT22;9191;54.324;10.126;2022-11-09T15:39:56;14.40;99.90
18131;DHT22;9191;54.324;10.126;2022-11-09T15:42:24;14.30;99.90
18131;DHT22;9191;54.324;10.126;2022-11-09T15:44:52;14.10;99.90
18131;DHT22;9191;54.324;10.126;2022-11-09T15:47:23;14.10;99.90
18131;DHT22;9191;54.324;10.126;2022-11-09T15:49:53;14.10;99.90
18131;DHT22;9191;54.324;10.126;2022-11-09T15:52:20;14.10;99.90
18131;DHT22;9191;54.324;10.126;2022-11-09T15:54:47;14.10;99.90
18131;DHT22;9191;54.324;10.126;2022-11-09T15:57:16;14.10;99.90
18131;DHT22;9191;54.324;10.126;2022-11-09T15:59:47;14.10;99.90
18131;DHT22;9191;54.324;10.126;2022-11-09T16:02:14;14.00;99.90
18131;DHT22;9191;54.324;10.126;2022-11-09T16:04:43;14.00;99.90
18131;DHT22;9191;54.324;10.126;2022-11-09T16:07:13;13.90;99.90
18131;DHT22;9191;54.324;10.126;2022-11-09T16:09:41;13.90;99.90
18131;DHT22;9191;54.324;10.126;2022-11-09T16:12:08;13.90;99.90
18131;DHT22;9191;54.324;10.126;2022-11-09T16:14:35;13.90;99.90